Main page
METAR-TAF:

METAR-TAF

Airports :

Athens International Airport

Athens, Greece

latitude: 37-56N, longitude: 023-56E, elevation: 94 m

Current weather observation

The report was made 38 minutes ago, at 21:20 UTC
Wind 1 kt from variable directions
Temperature 19°C
Humidity 94%
Pressure 1010 hPa
Visibility 10 km or more
Few clouds at a height of 3000 ft

METAR: LGAV 172120Z VRB01KT 9999 FEW030 19/18 Q1010 NOSIG

Time: 00:58 (21:58 UTC)

Forecast

The report was made 4 hours and 58 minutes ago, at 17:00 UTC
Forecast valid from 17 at 18 UTC to 18 at 18 UTC
Wind 3 kt from variable directions
Visibility 10 km or more
Few clouds at a height of 2500 ft
Probability 40% :
Temporary
from 18 at 12 UTC to 18 at 18 UTC
Visibility: 4000 m
Few clouds at a height of 1800 ft, Cumulonimbus.
Scattered clouds at a height of 2500 ft
Broken clouds at a height of 7000 ft
thunderstorm, rain

TAF: LGAV 171700Z 1718/1818 VRB03KT 9999 FEW025 PROB40 TEMPO 1812/1818 4000 TSRA FEW018CB SCT025 BKN070

Weather observations and forecasts of more than 4000 airports (METAR and TAF reports).

The available stations are represented by yellow and red dots on the map.

Hover mouse over dot to see the name of the station.

Then click to see weather observations and forecasts.

To change the map : click on the green buttons with a black cross to zoom in, on the green button with a dash to zoom out, or on the green arrows for adjacent maps.


METAR-TAF: